• Join FlightAware (Why Join?)
  • Login
  • US Flag 
03:17PM EST


 

Airport Tracker/Info


-or-


 

Live Flight TrackerFlight Track Log ✈ QXE2056 ✈ 09-May-2014 ✈ KPDX - KSEA

Flight Track Log - Related Links

Times and Time Zones

All times are in EDT time to prevent confusion due to time zone crossing. See the QXE2056 flight status page for this flight to view local times or setup timezone preferences in your user account.

Time Position Orientation Groundspeed Altitude Reporting Facility
EDT Latitude Longitude Course Direction KTS MPH feet Rate Location/Type
11:41PM 46.0965 -122.6693 352° North  Level FlightAware Approximate
11:42PM 46.1698 -122.6838 354° North  Level FlightAware Approximate
11:43PM 46.2434 -122.6943 354° North  Level FlightAware Approximate
11:44PM 46.3153 -122.7160 341° North  Level FlightAware Approximate
11:45PM 46.3892 -122.7199 358° North  Level FlightAware Approximate
11:46PM 46.4632 -122.7233 358° North  Level FlightAware Approximate
11:47PM 46.5371 -122.7267 358° North  Level FlightAware Approximate
11:48PM 46.6111 -122.7300 358° North  Level FlightAware Approximate
11:49PM 46.6850 -122.7333 North  Level FlightAware Approximate
11:50PM 46.7590 -122.7333 360° North  Level FlightAware Approximate
11:51PM 46.8200 -122.6844 42° Northeast  Level FlightAware Approximate
11:52PM 46.8782 -122.6180 42° Northeast  Level FlightAware Approximate
11:53PM 46.9319 -122.5514 34° Northeast  Level FlightAware Approximate
11:54PM 46.9986 -122.5174 19° North  Level FlightAware Approximate
11:55PM 47.0680 -122.4993 19° North  Level FlightAware Approximate
11:56PM 47.1365 -122.4761 North  Level FlightAware Approximate
11:57PM 47.2066 -122.4667 North  Level FlightAware Approximate
11:58PM 47.2770 -122.4591 North  Level FlightAware Approximate
11:59PM 47.3473 -122.4503 North  Level FlightAware Approximate
12:00AM 47.4179 -122.4500 North  Level FlightAware Approximate
12:01AM 47.4885 -122.4500 North  Level FlightAware Approximate
12:02AM 47.4760 -122.3711 132° Southeast  Level FlightAware Approximate
12:03AM 47.4499 -122.3118 132° Southeast  Level Estimated
12:04AM 47.4499 -122.3118 154° Southeast  Level Estimated
12:05AM 47.4499 -122.3118 132° Southeast  Level Estimated
12:06AM 47.4499 -122.3118 154° Southeast  Level Estimated
12:07AM 47.4499 -122.3118 132° Southeast  Level Estimated
12:08AM 47.4499 -122.3118 154° Southeast  Level Estimated
12:09AM 47.4499 -122.3118 180° South  Level Estimated
12:10AM 47.4499 -122.3118 North  Level Estimated
12:11AM 47.4499 -122.3118 180° South  Level Estimated
12:12AM 47.4499 -122.3118 34° Northeast  Level Estimated
12:13AM 47.4499 -122.3118 34° Northeast  Level Estimated
12:14AM 47.4499 -122.3118 34° Northeast  Level Estimated
12:15AM 47.4499 -122.3118 34° Northeast  Level Estimated
12:16AM 47.4499 -122.3118 34° Northeast  Level Estimated
12:17AM 47.4499 -122.3118 34° Northeast  Level Estimated
12:18AM 47.4499 -122.3118 34° Northeast  Level Estimated
12:19AM 47.4499 -122.3118 34° Northeast  Level Estimated